Time;durP1;ratioP1;P1;durP2;ratioP2;P2;SDS_P1;SDS_P2;PMS_P1;PMS_P2;Temp;Humidity;BMP_temperature;BMP_pressure;BME280_temperature;BME280_humidity;BME280_pressure;Samples;Min_cycle;Max_cycle;Signal;HPM_P1;HPM_P2
2022/10/27 00:01:19;;;;;;;;;16.60;16.00;;;;;19.04;51.55;100263.75;4964333;28;8857;-82
2022/10/27 00:03:52;;;;;;;;;13.00;12.00;;;;;18.96;50.19;100265.69;4950033;28;8853;-80
2022/10/27 00:06:20;;;;;;;;;18.40;15.20;;;;;18.80;51.49;100271.34;4930122;28;9017;-81
2022/10/27 00:08:49;;;;;;;;;17.00;16.40;;;;;18.82;51.49;100279.25;4948883;28;8878;-83
2022/10/27 00:11:18;;;;;;;;;18.60;17.20;;;;;18.98;51.17;100275.34;4946133;28;8860;-85
2022/10/27 00:13:48;;;;;;;;;19.20;17.00;;;;;19.04;50.77;100275.19;4974387;28;8893;-82
2022/10/27 00:16:17;;;;;;;;;16.20;16.00;;;;;19.05;50.29;100278.69;4969020;28;8978;-83
2022/10/27 00:18:46;;;;;;;;;9.40;9.20;;;;;19.06;49.04;100286.59;4963584;28;8855;-81
2022/10/27 00:21:18;;;;;;;;;12.00;12.00;;;;;19.10;48.71;100276.81;4936440;28;8889;-82
2022/10/27 00:23:49;;;;;;;;;7.00;7.00;;;;;19.13;47.91;100274.13;4948923;28;8945;-81
2022/10/27 00:26:19;;;;;;;;;9.60;8.20;;;;;19.23;47.87;100280.06;4948675;28;8871;-81
2022/10/27 00:28:49;;;;;;;;;8.00;8.00;;;;;19.24;47.53;100276.47;4947762;29;8932;-81
2022/10/27 00:31:37;;;;;;;;;10.40;10.00;;;;;19.33;47.51;100273.63;4949772;28;10170;-80
2022/10/27 00:34:06;;;;;;;;;9.80;9.80;;;;;19.39;47.89;100275.25;4911026;29;8851;-82
2022/10/27 00:36:36;;;;;;;;;5.60;5.00;;;;;19.14;48.68;100280.28;4895841;28;8856;-81
2022/10/27 00:39:05;;;;;;;;;11.20;9.00;;;;;18.77;49.65;100289.00;4947312;28;8878;-81
2022/10/27 00:41:37;;;;;;;;;12.80;12.60;;;;;18.69;50.17;100286.53;5009563;28;8845;-81
2022/10/27 00:44:42;;;;;;;;;12.80;12.80;;;;;18.54;50.63;100287.72;4912424;29;8867;-82
2022/10/27 00:47:20;;;;;;;;;8.00;8.00;;;;;18.79;49.54;100285.44;4914953;29;9679;-82
2022/10/27 00:49:54;;;;;;;;;7.80;7.80;;;;;18.92;48.93;100283.41;4917337;29;8959;-81
2022/10/27 00:52:32;;;;;;;;;13.00;11.80;;;;;19.03;48.62;100285.81;4933681;29;8866;-81
2022/10/27 00:55:05;;;;;;;;;11.80;11.40;;;;;19.12;48.44;100282.09;4932616;29;8894;-83
2022/10/27 00:57:37;;;;;;;;;17.40;17.40;;;;;19.18;49.01;100280.16;4939880;28;8896;-82
2022/10/27 01:00:08;;;;;;;;;19.40;18.00;;;;;19.26;48.59;100285.25;4954804;28;8865;-81
2022/10/27 01:02:37;;;;;;;;;22.20;20.60;;;;;19.27;48.84;100277.28;4923382;28;8896;-81
2022/10/27 01:05:13;;;;;;;;;14.60;14.60;;;;;19.34;48.49;100283.31;4953556;28;8868;-85
2022/10/27 01:07:44;;;;;;;;;16.20;15.40;;;;;19.32;48.56;100277.19;4954671;28;8868;-83
2022/10/27 01:10:14;;;;;;;;;13.00;12.00;;;;;19.29;48.53;100277.25;4953307;28;8845;-83
2022/10/27 01:12:43;;;;;;;;;14.20;13.80;;;;;19.27;48.34;100277.28;4954567;28;8955;-81
2022/10/27 01:15:12;;;;;;;;;16.40;13.80;;;;;19.31;48.29;100274.56;4987095;28;9029;-83
2022/10/27 01:17:51;;;;;;;;;14.60;12.20;;;;;19.43;48.08;100280.44;4977658;28;8905;-84
2022/10/27 01:20:55;;;;;;;;;9.60;8.60;;;;;19.53;46.60;100278.41;4977225;28;9005;-83
2022/10/27 01:23:35;;;;;;;;;6.40;5.60;;;;;19.46;46.09;100282.13;5002483;28;8863;-80
2022/10/27 01:26:42;;;;;;;;;5.20;5.20;;;;;19.64;45.96;100292.25;4966226;28;8894;-84
2022/10/27 01:29:43;;;;;;;;;8.80;8.80;;;;;19.53;46.07;100288.09;4950820;28;8911;-83
2022/10/27 01:32:27;;;;;;;;;8.80;8.80;;;;;19.62;46.16;100288.75;5043472;28;8854;-82
2022/10/27 01:35:03;;;;;;;;;12.40;10.40;;;;;19.70;46.07;100291.22;5059252;28;8867;-80
2022/10/27 01:37:38;;;;;;;;;8.40;8.40;;;;;19.79;45.71;100290.13;4951629;28;8867;-78
2022/10/27 01:40:17;;;;;;;;;12.80;11.60;;;;;19.88;45.79;100284.56;4938517;28;8944;-80
2022/10/27 01:42:50;;;;;;;;;15.20;13.20;;;;;19.91;46.19;100284.50;4953026;28;8953;-82
2022/10/27 01:45:26;;;;;;;;;12.00;11.00;;;;;19.98;46.26;100277.25;4962232;28;8851;-81
2022/10/27 01:47:58;;;;;;;;;11.00;10.40;;;;;20.04;45.70;100280.59;4951032;28;9597;-82
2022/10/27 01:50:30;;;;;;;;;9.40;9.40;;;;;20.05;45.18;100282.31;4958276;28;8852;-81
2022/10/27 01:53:18;;;;;;;;;12.20;10.80;;;;;20.03;45.45;100285.94;4983092;28;9017;-82
2022/10/27 01:56:01;;;;;;;;;14.60;11.00;;;;;20.16;45.49;100283.81;4959706;28;8863;-83
2022/10/27 01:59:00;;;;;;;;;12.40;11.80;;;;;20.29;45.62;100284.34;4952390;28;9690;-82
2022/10/27 02:01:43;;;;;;;;;11.60;10.80;;;;;20.28;45.05;100294.06;4971294;28;8848;-81
2022/10/27 02:04:21;;;;;;;;;9.80;9.80;;;;;20.28;45.03;100290.53;4971930;28;8886;-81
2022/10/27 02:06:58;;;;;;;;;15.40;14.80;;;;;20.34;46.12;100293.00;4970569;28;8946;-83
2022/10/27 02:09:38;;;;;;;;;16.40;15.60;;;;;20.39;46.12;100297.25;4936276;28;8876;-82
2022/10/27 02:12:11;;;;;;;;;20.00;17.80;;;;;20.41;46.12;100305.19;4948835;28;8889;-81
2022/10/27 02:14:42;;;;;;;;;15.40;14.60;;;;;20.38;45.81;100305.28;4950362;28;8856;-80
2022/10/27 02:17:13;;;;;;;;;20.00;19.40;;;;;20.44;46.79;100297.16;4948481;28;8855;-82
2022/10/27 02:19:46;;;;;;;;;19.80;18.40;;;;;20.47;46.51;100305.00;4951028;28;8881;-82
2022/10/27 02:22:15;;;;;;;;;16.80;15.60;;;;;20.45;46.10;100304.16;4967227;28;8982;-80
2022/10/27 02:24:44;;;;;;;;;14.20;14.20;;;;;20.47;45.63;100298.81;4950420;28;8883;-80
2022/10/27 02:27:21;;;;;;;;;10.20;10.20;;;;;20.51;45.44;100295.16;4969446;28;8880;-79
2022/10/27 02:29:57;;;;;;;;;14.80;14.00;;;;;20.47;45.62;100304.13;4967434;28;8856;-83
2022/10/27 02:32:27;;;;;;;;;11.00;11.00;;;;;20.44;45.22;100299.81;4965689;28;8898;-80
2022/10/27 02:34:58;;;;;;;;;14.00;13.00;;;;;20.42;45.65;100296.34;4936491;28;8833;-79
2022/10/27 02:37:31;;;;;;;;;10.20;10.20;;;;;20.41;45.89;100299.88;4953136;28;8857;-81
2022/10/27 02:40:00;;;;;;;;;10.00;9.40;;;;;20.37;45.10;100304.38;4968485;28;8828;-80
2022/10/27 02:42:29;;;;;;;;;9.20;8.00;;;;;20.34;44.82;100306.25;4933829;28;8894;-82
2022/10/27 02:44:58;;;;;;;;;9.60;8.40;;;;;20.34;44.98;100304.50;4936795;28;9473;-81
2022/10/27 02:47:26;;;;;;;;;11.20;9.60;;;;;20.35;45.27;100306.22;4953846;28;8865;-80
2022/10/27 02:49:56;;;;;;;;;8.20;8.20;;;;;20.36;44.96;100309.72;4969670;28;8921;-80
2022/10/27 02:52:25;;;;;;;;;17.60;16.60;;;;;20.41;45.92;100318.41;5006962;28;8858;-80
2022/10/27 02:54:54;;;;;;;;;13.60;12.80;;;;;20.42;45.85;100317.53;5057713;28;8851;-80
2022/10/27 02:57:22;;;;;;;;;11.00;11.00;;;;;20.42;45.32;100320.16;4990760;28;8844;-80
2022/10/27 02:59:51;;;;;;;;;12.40;11.60;;;;;20.41;45.42;100323.72;4980286;28;8943;-79
2022/10/27 03:02:22;;;;;;;;;10.00;10.00;;;;;20.41;45.21;100323.72;4978232;28;8990;-81
2022/10/27 03:04:51;;;;;;;;;13.80;13.60;;;;;20.44;45.62;100332.44;4997406;28;8867;-80
2022/10/27 03:07:21;;;;;;;;;15.00;15.00;;;;;20.48;45.45;100330.59;5008388;28;8980;-81
2022/10/27 03:09:50;;;;;;;;;13.80;13.20;;;;;20.49;45.44;100326.16;4972125;28;8867;-81
2022/10/27 03:12:18;;;;;;;;;12.00;12.00;;;;;20.48;44.99;100329.72;4988705;28;8889;-81
2022/10/27 03:14:47;;;;;;;;;11.60;11.60;;;;;20.48;45.13;100332.38;5021498;28;8844;-81
2022/10/27 03:17:15;;;;;;;;;13.00;11.80;;;;;20.50;44.77;100341.16;4938910;28;8923;-80
2022/10/27 03:19:44;;;;;;;;;14.20;13.20;;;;;20.50;44.61;100341.16;4977814;28;8868;-80
2022/10/27 03:22:13;;;;;;;;;9.40;9.00;;;;;20.49;43.95;100336.75;5094940;28;8982;-79
2022/10/27 03:24:43;;;;;;;;;8.20;8.20;;;;;20.53;43.96;100341.03;5069227;28;8835;-82
2022/10/27 03:27:11;;;;;;;;;11.40;11.40;;;;;20.57;43.93;100346.22;4947990;28;8924;-80
2022/10/27 03:29:40;;;;;;;;;11.60;11.00;;;;;20.60;43.72;100343.53;4947849;28;8874;-81
2022/10/27 03:32:09;;;;;;;;;11.20;11.20;;;;;20.63;44.13;100340.78;4966648;28;9001;-81
2022/10/27 03:34:38;;;;;;;;;12.80;11.80;;;;;20.66;44.35;100344.25;4949512;28;8884;-80
2022/10/27 03:37:06;;;;;;;;;16.00;14.80;;;;;20.72;45.11;100349.34;4931385;28;8867;-81
2022/10/27 03:39:35;;;;;;;;;14.60;14.40;;;;;20.74;44.46;100344.91;4947071;28;8855;-80
2022/10/27 03:42:05;;;;;;;;;15.00;13.00;;;;;20.73;44.66;100351.97;4950340;28;8969;-80
2022/10/27 03:44:34;;;;;;;;;14.20;12.60;;;;;20.70;44.60;100346.78;4981665;28;8872;-82
2022/10/27 03:47:02;;;;;;;;;11.80;11.60;;;;;20.69;43.44;100346.81;4973636;28;9057;-81
2022/10/27 03:49:31;;;;;;;;;24.75;24.75;;;;;20.72;43.01;100344.06;4945949;28;8933;-80
2022/10/27 03:52:00;;;;;;;;;16.20;16.20;;;;;20.70;44.25;100348.53;4948313;28;8947;-80
2022/10/27 03:54:30;;;;;;;;;18.80;16.40;;;;;20.63;44.64;100348.72;4945128;28;8876;-81
2022/10/27 03:56:59;;;;;;;;;12.20;12.20;;;;;20.62;42.92;100346.09;4949535;28;8962;-82
2022/10/27 03:59:29;;;;;;;;;11.20;10.20;;;;;20.63;42.99;100346.06;4948821;28;8889;-79
2022/10/27 04:01:57;;;;;;;;;18.20;16.00;;;;;20.66;44.64;100347.75;4946089;28;8863;-83
2022/10/27 04:04:31;;;;;;;;;20.80;19.00;;;;;20.70;44.82;100351.19;4945605;28;8863;-80
2022/10/27 04:06:59;;;;;;;;;39.25;31.75;;;;;20.61;45.22;100355.84;4949593;28;8867;-81
2022/10/27 04:09:28;;;;;;;;;26.60;25.20;;;;;20.61;45.93;100355.00;4947131;28;8933;-82
2022/10/27 04:11:57;;;;;;;;;18.80;18.80;;;;;20.60;45.59;100359.44;4936051;28;8871;-80
2022/10/27 04:14:25;;;;;;;;;9.80;9.80;;;;;20.54;43.75;100346.31;4955886;28;8901;-81
2022/10/27 04:16:56;;;;;;;;;12.40;12.40;;;;;20.52;43.29;100345.47;4964809;28;8950;-81
2022/10/27 04:19:24;;;;;;;;;7.20;7.20;;;;;20.53;42.58;100343.69;4951903;28;8860;-81
2022/10/27 04:21:53;;;;;;;;;20.20;20.20;;;;;20.57;43.07;100340.06;4954790;28;8866;-81
2022/10/27 04:24:22;;;;;;;;;13.00;13.00;;;;;20.57;43.02;100350.66;4954365;28;9015;-80
2022/10/27 04:26:51;;;;;;;;;74.75;67.25;;;;;20.54;43.17;100350.75;4932995;28;8867;-81
2022/10/27 04:29:19;;;;;;;;;19.00;19.00;;;;;20.57;43.46;100367.41;4968148;28;10139;-79
2022/10/27 04:31:48;;;;;;;;;19.20;18.80;;;;;20.26;44.97;100372.69;4954383;28;8867;-79
2022/10/27 04:34:18;;;;;;;;;13.00;12.60;;;;;20.12;45.03;100378.38;4955072;28;8960;-82
2022/10/27 04:36:47;;;;;;;;;17.80;17.80;;;;;20.30;45.22;100376.13;4958517;28;8833;-82
2022/10/27 04:39:17;;;;;;;;;14.00;14.00;;;;;20.38;44.85;100372.38;4951423;28;8887;-82
2022/10/27 04:41:45;;;;;;;;;14.80;14.60;;;;;20.31;45.26;100372.59;4950922;28;8914;-82
2022/10/27 04:44:14;;;;;;;;;19.80;18.00;;;;;20.41;45.06;100380.22;4933604;28;8875;-81
2022/10/27 04:46:43;;;;;;;;;26.50;25.50;;;;;20.49;45.95;100387.09;4949525;28;8852;-81
2022/10/27 04:49:11;;;;;;;;;29.75;27.50;;;;;20.54;46.01;100386.03;4949482;28;9025;-81
2022/10/27 04:51:41;;;;;;;;;25.00;24.25;;;;;20.49;45.99;100395.94;4949888;28;8967;-83
2022/10/27 04:54:10;;;;;;;;;26.25;25.25;;;;;20.12;46.94;100396.91;4951547;28;8951;-81
2022/10/27 04:56:39;;;;;;;;;25.50;24.50;;;;;19.55;48.59;100402.72;4950814;28;8855;-80
2022/10/27 04:59:08;;;;;;;;;42.50;36.50;;;;;18.62;52.75;100417.00;4949246;28;8898;-83
2022/10/27 05:01:36;;;;;;;;;41.75;35.75;;;;;17.85;55.10;100419.28;5027131;28;8912;-82
2022/10/27 05:04:05;;;;;;;;;27.25;26.25;;;;;17.68;55.09;100421.28;4949432;28;8962;-83
2022/10/27 05:06:34;;;;;;;;;20.00;20.00;;;;;17.53;56.07;100433.81;4989701;28;8942;-82
2022/10/27 05:09:04;;;;;;;;;22.80;21.00;;;;;17.92;56.06;100435.91;4965708;28;8895;-81
2022/10/27 05:11:33;;;;;;;;;24.00;23.00;;;;;17.80;56.54;100439.53;5047659;28;8864;-80
2022/10/27 05:14:02;;;;;;;;;27.00;26.40;;;;;18.13;55.73;100445.22;4938290;28;9675;-82
2022/10/27 05:16:32;;;;;;;;;22.75;22.50;;;;;18.39;54.59;100430.66;5030038;28;8888;-81
2022/10/27 05:19:02;;;;;;;;;27.00;22.75;;;;;18.56;54.22;100436.50;4956522;28;8899;-82
2022/10/27 05:21:31;;;;;;;;;24.75;24.25;;;;;18.76;53.59;100445.81;4948051;28;8890;-81
2022/10/27 05:24:00;;;;;;;;;31.50;28.75;;;;;18.92;53.07;100449.06;4930848;28;8870;-81
2022/10/27 05:26:30;;;;;;;;;25.25;24.50;;;;;19.12;52.48;100453.94;4931024;28;8874;-81
2022/10/27 05:29:04;;;;;;;;;28.25;26.00;;;;;19.20;51.71;100459.91;5013734;28;8875;-81
2022/10/27 05:31:33;;;;;;;;;27.25;25.75;;;;;19.26;51.60;100462.44;5050911;28;8879;-83
2022/10/27 05:34:02;;;;;;;;;26.25;25.25;;;;;19.38;50.90;100459.53;5050345;28;8863;-73
2022/10/27 05:36:30;;;;;;;;;24.75;23.00;;;;;19.48;50.39;100453.13;5048013;28;8863;-74
2022/10/27 05:38:59;;;;;;;;;24.50;23.75;;;;;19.55;50.26;100455.66;5049695;28;8856;-74
2022/10/27 05:41:27;;;;;;;;;27.00;25.50;;;;;19.62;50.04;100457.22;5064903;28;8893;-73
2022/10/27 05:43:57;;;;;;;;;30.75;27.50;;;;;19.61;50.07;100458.16;5049050;28;8847;-80
2022/10/27 05:46:26;;;;;;;;;25.25;25.25;;;;;19.65;50.00;100462.44;5049346;28;8969;-80
2022/10/27 05:48:54;;;;;;;;;24.25;24.25;;;;;19.68;49.80;100467.69;5067115;28;9056;-81
2022/10/27 05:51:23;;;;;;;;;32.75;29.75;;;;;19.72;49.75;100468.50;5036625;28;8892;-79
2022/10/27 05:53:55;;;;;;;;;21.00;20.60;;;;;19.71;49.35;100470.25;5050342;28;8975;-80
2022/10/27 05:56:24;;;;;;;;;21.75;21.75;;;;;19.69;49.17;100474.69;5014546;28;8965;-80
2022/10/27 05:58:53;;;;;;;;;27.75;26.50;;;;;19.66;49.41;100474.78;5050417;28;8866;-78
2022/10/27 06:01:24;;;;;;;;;24.00;21.75;;;;;19.73;49.28;100479.03;5070233;28;8911;-83
2022/10/27 06:03:53;;;;;;;;;27.75;25.50;;;;;19.78;49.23;100473.66;4954250;28;8860;-82
2022/10/27 06:06:23;;;;;;;;;24.50;24.00;;;;;19.83;49.18;100485.03;4947636;28;8863;-82
2022/10/27 06:08:53;;;;;;;;;33.75;32.00;;;;;19.71;49.43;100496.72;4965887;28;8860;-84
2022/10/27 06:11:24;;;;;;;;;30.50;28.50;;;;;19.75;49.82;100501.06;4912860;28;9552;-82
2022/10/27 06:13:53;;;;;;;;;30.75;29.25;;;;;19.84;49.43;100503.50;4913729;28;8864;-81
2022/10/27 06:16:27;;;;;;;;;29.75;29.25;;;;;19.94;49.31;100506.78;4995100;28;8859;-85
2022/10/27 06:18:58;;;;;;;;;32.00;31.00;;;;;19.99;49.27;100493.44;4929115;29;9785;-82
2022/10/27 06:21:26;;;;;;;;;31.00;29.50;;;;;19.99;49.04;100493.44;4928517;29;8871;-80
2022/10/27 06:23:55;;;;;;;;;25.75;24.50;;;;;20.04;49.00;100491.56;4927315;29;8953;-82
2022/10/27 06:26:24;;;;;;;;;30.25;28.75;;;;;20.08;49.00;100495.03;5010209;28;8871;-82
2022/10/27 06:28:53;;;;;;;;;29.00;28.50;;;;;19.86;49.52;100487.56;4929100;29;8875;-82
2022/10/27 06:31:21;;;;;;;;;30.50;29.50;;;;;19.80;49.61;100485.94;4915724;28;8863;-83
2022/10/27 06:33:51;;;;;;;;;28.50;26.00;;;;;19.50;49.67;100490.13;4933862;28;8849;-84
2022/10/27 06:36:20;;;;;;;;;28.25;26.25;;;;;19.50;49.80;100484.84;4977204;28;8852;-82
2022/10/27 06:38:49;;;;;;;;;36.25;32.50;;;;;19.63;49.76;100496.03;4910031;28;8841;-82
2022/10/27 06:41:18;;;;;;;;;35.75;29.50;;;;;19.59;49.74;100497.88;4945772;28;8864;-84
2022/10/27 06:43:47;;;;;;;;;30.50;28.00;;;;;19.45;50.42;100502.56;5050402;28;8879;-83
2022/10/27 06:46:17;;;;;;;;;36.00;33.00;;;;;19.38;50.81;100506.28;4962665;28;8897;-84
2022/10/27 06:48:46;;;;;;;;;33.75;30.25;;;;;19.48;50.31;100507.81;4950689;28;8975;-85
2022/10/27 06:51:16;;;;;;;;;39.00;34.25;;;;;19.55;50.15;100513.84;4950164;28;8870;-84
2022/10/27 06:53:45;;;;;;;;;36.75;33.00;;;;;19.63;50.04;100512.75;4948826;28;8906;-80
2022/10/27 06:56:14;;;;;;;;;27.25;27.25;;;;;19.85;49.84;100504.38;4951065;28;8922;-82
2022/10/27 06:58:43;;;;;;;;;35.50;30.75;;;;;20.00;49.65;100504.00;4977037;28;8852;-83
2022/10/27 07:01:11;;;;;;;;;33.25;31.00;;;;;20.01;49.55;100510.16;4988557;28;8997;-81
2022/10/27 07:03:40;;;;;;;;;30.25;30.00;;;;;19.86;49.50;100506.97;4952961;28;8822;-83
2022/10/27 07:06:09;;;;;;;;;35.00;33.00;;;;;19.84;50.01;100521.16;5052202;28;8878;-83
2022/10/27 07:08:39;;;;;;;;;28.75;28.75;;;;;19.85;49.77;100514.97;5020332;28;8870;-83
2022/10/27 07:11:08;;;;;;;;;33.25;31.25;;;;;19.89;49.43;100515.78;4913591;29;8882;-85
2022/10/27 07:13:37;;;;;;;;;32.50;29.50;;;;;20.02;49.28;100512.78;4911021;28;8956;-84
2022/10/27 07:16:07;;;;;;;;;29.50;26.50;;;;;19.94;49.22;100508.56;4975760;28;8949;-83
2022/10/27 07:18:37;;;;;;;;;39.50;34.00;;;;;19.95;49.46;100519.13;4991260;28;8874;-81
2022/10/27 07:21:06;;;;;;;;;35.00;32.25;;;;;20.06;49.22;100526.81;4906850;28;8911;-73
2022/10/27 07:23:34;;;;;;;;;35.25;31.75;;;;;20.16;49.20;100524.81;4887352;29;8903;-72
2022/10/27 07:26:04;;;;;;;;;30.00;28.00;;;;;20.25;49.09;100532.53;4903130;28;8882;-71
2022/10/27 07:28:33;;;;;;;;;35.00;31.50;;;;;20.27;48.96;100529.88;4926010;28;8852;-70
2022/10/27 07:31:02;;;;;;;;;35.25;31.00;;;;;20.37;48.91;100532.22;4938555;28;8946;-73
2022/10/27 07:33:30;;;;;;;;;31.75;30.00;;;;;20.48;48.52;100537.25;4944076;28;8872;-69
2022/10/27 07:35:59;;;;;;;;;32.50;29.75;;;;;20.44;48.20;100532.97;4945793;28;9629;-69
2022/10/27 07:38:27;;;;;;;;;35.00;32.00;;;;;20.54;48.06;100539.75;4946488;28;8875;-71
2022/10/27 07:40:56;;;;;;;;;35.50;31.50;;;;;20.60;48.12;100539.66;4963839;28;8863;-71
2022/10/27 07:43:26;;;;;;;;;32.00;31.00;;;;;20.62;47.94;100545.78;4954367;28;8876;-74
2022/10/27 07:45:55;;;;;;;;;34.25;30.50;;;;;20.55;48.31;100546.81;4968188;28;8860;-75
2022/10/27 07:48:24;;;;;;;;;33.25;30.00;;;;;20.44;48.01;100556.81;5039383;28;8890;-71
2022/10/27 07:50:54;;;;;;;;;56.25;44.25;;;;;20.41;48.19;100562.16;4933066;28;8856;-75
2022/10/27 07:53:22;;;;;;;;;37.75;33.50;;;;;20.57;47.96;100570.63;4949621;28;8986;-73
2022/10/27 07:55:52;;;;;;;;;37.50;31.25;;;;;20.71;47.80;100568.50;4966834;28;8937;-71
2022/10/27 07:58:20;;;;;;;;;39.00;34.50;;;;;20.75;47.51;100571.94;4946593;28;8860;-73
2022/10/27 08:00:50;;;;;;;;;38.50;32.75;;;;;20.87;47.75;100569.00;4944642;28;8893;-71
2022/10/27 08:03:21;;;;;;;;;35.25;31.00;;;;;21.03;47.33;100566.78;4947109;28;8859;-75
2022/10/27 08:05:49;;;;;;;;;40.50;35.00;;;;;21.13;47.13;100568.25;4963082;28;8857;-72
2022/10/27 08:08:19;;;;;;;;;38.50;33.25;;;;;21.28;46.85;100569.59;4965839;28;8892;-71
2022/10/27 08:10:49;;;;;;;;;35.50;32.25;;;;;20.97;46.94;100581.06;4946763;29;8871;-72
2022/10/27 08:13:18;;;;;;;;;35.50;31.75;;;;;20.87;46.10;100576.94;4956609;28;8975;-73
2022/10/27 08:15:47;;;;;;;;;27.50;25.50;;;;;20.86;44.57;100577.84;4966379;28;8900;-71
2022/10/27 08:18:17;;;;;;;;;33.75;27.75;;;;;21.02;44.05;100592.44;4966086;28;8849;-70
2022/10/27 08:20:47;;;;;;;;;27.25;27.25;;;;;21.12;43.67;100592.19;5047665;28;8853;-73
2022/10/27 08:23:17;;;;;;;;;20.00;20.00;;;;;21.09;43.80;100592.25;4965855;28;8841;-72
2022/10/27 08:25:46;;;;;;;;;30.25;29.50;;;;;21.06;44.04;100602.94;4966099;28;8848;-72
2022/10/27 08:28:16;;;;;;;;;28.75;27.50;;;;;19.98;46.63;100601.16;4963822;28;8856;-75
2022/10/27 08:30:44;;;;;;;;;31.25;27.50;;;;;19.60;47.56;100601.91;4966141;28;8906;-73
2022/10/27 08:33:22;;;;;;;;;31.25;29.00;;;;;20.37;45.75;100597.59;4964953;28;8857;-74
2022/10/27 08:35:51;;;;;;;;;25.50;25.50;;;;;19.83;46.61;100601.50;4964455;28;9622;-71
2022/10/27 08:38:20;;;;;;;;;28.50;26.00;;;;;19.88;46.36;100601.38;4962282;28;8870;-72
2022/10/27 08:41:02;;;;;;;;;29.25;27.75;;;;;20.37;45.88;100603.75;4946590;28;8863;-72
2022/10/27 08:43:58;;;;;;;;;31.75;30.00;;;;;20.93;45.02;100597.13;4945607;28;8947;-72
2022/10/27 08:46:32;;;;;;;;;33.00;27.75;;;;;21.27;44.28;100586.47;4964173;28;8927;-71
2022/10/27 08:49:06;;;;;;;;;23.75;23.00;;;;;21.62;43.06;100595.22;4945036;28;8840;-70
2022/10/27 08:51:35;;;;;;;;;34.75;31.50;;;;;21.76;42.43;100598.34;4945043;28;8871;-71
2022/10/27 08:54:06;;;;;;;;;27.75;26.75;;;;;22.10;42.37;100607.06;4946436;28;8887;-70
2022/10/27 08:56:40;;;;;;;;;27.00;25.00;;;;;22.32;41.37;100597.50;4960812;28;8882;-72
2022/10/27 08:59:14;;;;;;;;;33.75;32.25;;;;;22.42;41.13;100598.09;4945098;28;8898;-71
2022/10/27 09:01:54;;;;;;;;;19.25;19.00;;;;;22.48;41.15;100599.69;4958806;28;8867;-71
2022/10/27 09:04:37;;;;;;;;;26.00;24.50;;;;;22.68;40.61;100604.31;4949516;28;8877;-74
2022/10/27 09:07:18;;;;;;;;;22.50;22.50;;;;;22.02;41.73;100604.63;4948262;28;8882;-71
2022/10/27 09:09:54;;;;;;;;;31.50;29.25;;;;;22.36;41.58;100601.84;4959893;28;8858;-71
2022/10/27 09:12:46;;;;;;;;;29.40;27.60;;;;;21.65;43.42;100599.59;4949629;28;8889;-70
2022/10/27 09:15:28;;;;;;;;;34.50;32.50;;;;;21.38;44.85;100602.09;4967500;28;8879;-72
2022/10/27 09:18:04;;;;;;;;;29.75;25.00;;;;;20.87;45.76;100608.75;4968064;28;8829;-72
2022/10/27 09:20:40;;;;;;;;;30.75;30.00;;;;;20.90;45.88;100599.84;4966962;28;8865;-70
2022/10/27 09:23:13;;;;;;;;;25.00;23.75;;;;;21.46;44.34;100602.75;4967045;28;8895;-70
2022/10/27 09:25:43;;;;;;;;;14.00;12.75;;;;;21.47;44.24;100598.31;4974996;28;8837;-70
2022/10/27 09:28:19;;;;;;;;;20.50;19.00;;;;;22.11;42.58;100596.38;4968254;28;8853;-74
2022/10/27 09:30:51;;;;;;;;;23.40;21.20;;;;;22.49;42.15;100596.09;4978141;28;8865;-73
2022/10/27 09:33:24;;;;;;;;;23.25;19.25;;;;;22.22;40.73;100605.81;5010769;28;8854;-75
2022/10/27 09:35:54;;;;;;;;;27.00;24.50;;;;;22.29;41.47;100594.97;4988756;28;8847;-72
2022/10/27 09:38:26;;;;;;;;;25.25;21.50;;;;;22.20;41.03;100596.09;4951069;28;8855;-71
2022/10/27 09:40:56;;;;;;;;;23.00;23.00;;;;;22.21;40.99;100594.28;4948815;28;9675;-71
2022/10/27 09:43:24;;;;;;;;;24.60;23.00;;;;;22.41;40.18;100599.00;4948696;28;8855;-71
2022/10/27 09:46:04;;;;;;;;;20.20;20.00;;;;;21.44;42.20;100599.28;4949101;28;8859;-71
2022/10/27 09:48:35;;;;;;;;;18.20;18.20;;;;;21.78;41.66;100604.47;4947813;28;8875;-70
2022/10/27 09:51:13;;;;;;;;;23.00;17.80;;;;;22.27;41.34;100595.91;4980248;28;8883;-73
2022/10/27 09:53:49;;;;;;;;;23.60;21.20;;;;;22.30;40.70;100598.47;4982406;28;9011;-75
2022/10/27 09:56:24;;;;;;;;;24.40;21.20;;;;;21.68;41.99;100597.72;4906149;28;8866;-74
2022/10/27 09:58:57;;;;;;;;;26.80;25.40;;;;;22.37;41.50;100595.56;5017904;28;8949;-73
2022/10/27 10:01:28;;;;;;;;;21.25;21.00;;;;;22.45;40.09;100584.69;4985172;28;8841;-73
2022/10/27 10:04:05;;;;;;;;;24.25;22.00;;;;;22.39;40.44;100585.75;4985161;28;8892;-71
2022/10/27 10:06:40;;;;;;;;;22.25;21.75;;;;;22.91;40.03;100585.81;4985154;28;8861;-71
2022/10/27 10:09:25;;;;;;;;;24.00;22.00;;;;;23.34;39.44;100584.28;4984955;28;8858;-72
2022/10/27 10:12:21;;;;;;;;;25.80;22.00;;;;;23.70;38.74;100577.63;4952989;28;8875;-72
2022/10/27 10:15:12;;;;;;;;;24.00;24.00;;;;;23.83;38.62;100576.25;4984530;28;8960;-71
2022/10/27 10:17:50;;;;;;;;;26.50;23.00;;;;;23.00;38.61;100583.75;4936920;28;9027;-71
2022/10/27 10:20:31;;;;;;;;;27.25;22.00;;;;;23.21;38.15;100582.13;4986518;28;8906;-71
2022/10/27 10:23:07;;;;;;;;;18.50;18.50;;;;;23.39;38.01;100575.28;4985524;28;8854;-74
2022/10/27 10:25:46;;;;;;;;;26.00;25.00;;;;;23.58;37.13;100567.47;4966007;28;8865;-75
2022/10/27 10:28:20;;;;;;;;;21.00;20.60;;;;;23.66;37.47;100558.22;4949308;28;8891;-72
2022/10/27 10:30:52;;;;;;;;;20.00;18.40;;;;;23.54;37.44;100561.38;4949018;28;8878;-72
2022/10/27 10:33:24;;;;;;;;;25.25;22.25;;;;;23.88;37.39;100557.44;4948591;28;8843;-72
2022/10/27 10:35:54;;;;;;;;;16.40;16.40;;;;;24.04;36.65;100550.56;4947189;28;9526;-70
2022/10/27 10:38:33;;;;;;;;;20.40;19.60;;;;;24.38;36.89;100561.66;4947494;28;8978;-72
2022/10/27 10:41:06;;;;;;;;;18.40;15.20;;;;;24.62;36.42;100557.13;4948314;28;8868;-73
2022/10/27 10:43:35;;;;;;;;;21.00;19.75;;;;;24.08;35.86;100554.88;4948050;28;8855;-70
2022/10/27 10:46:05;;;;;;;;;19.80;19.00;;;;;24.20;36.18;100550.81;4929641;28;8889;-73
2022/10/27 10:48:45;;;;;;;;;25.80;22.80;;;;;24.51;35.87;100549.53;4965517;28;8860;-75
2022/10/27 10:51:25;;;;;;;;;24.40;22.80;;;;;24.46;35.16;100546.19;4967490;28;9090;-72
2022/10/27 10:53:59;;;;;;;;;17.80;17.20;;;;;24.82;35.53;100551.81;4964908;28;8919;-74
2022/10/27 10:56:31;;;;;;;;;22.50;22.50;;;;;25.07;35.21;100540.03;4967389;28;8876;-73
2022/10/27 10:59:06;;;;;;;;;15.20;15.20;;;;;25.32;34.27;100547.81;4959997;28;8859;-74
2022/10/27 11:01:41;;;;;;;;;13.40;13.40;;;;;25.54;33.04;100541.47;4947540;28;8889;-74
2022/10/27 12:59:44;;;;;;;;;16.20;14.20;;;;;21.43;42.17;100497.50;5121370;27;13502;-76
2022/10/27 13:02:13;;;;;;;;;19.20;18.00;;;;;21.88;40.95;100495.31;5105258;28;8840;-75
2022/10/27 13:05:26;;;;;;;;;15.00;14.80;;;;;21.82;40.28;100493.72;5105621;28;9554;-78
2022/10/27 13:08:31;;;;;;;;;17.60;15.40;;;;;21.83;40.25;100497.25;5114493;28;8846;-77
2022/10/27 13:11:25;;;;;;;;;22.80;19.60;;;;;22.09;39.36;100491.94;5090045;28;8854;-77
2022/10/27 13:14:15;;;;;;;;;20.00;16.20;;;;;22.53;38.54;100497.59;5120091;28;9633;-75
2022/10/27 13:16:57;;;;;;;;;15.20;14.60;;;;;22.80;37.08;100489.56;5099891;28;8850;-77
2022/10/27 13:19:39;;;;;;;;;15.00;14.40;;;;;22.93;37.74;100495.28;5103757;28;8844;-76
2022/10/27 13:22:15;;;;;;;;;16.00;16.00;;;;;23.38;36.26;100483.03;5102432;28;8844;-76
2022/10/27 13:24:51;;;;;;;;;17.00;14.80;;;;;23.16;35.28;100492.69;5103823;28;8944;-76
2022/10/27 13:27:25;;;;;;;;;12.40;11.80;;;;;23.01;34.87;100493.22;5103795;28;9605;-76
2022/10/27 13:29:59;;;;;;;;;11.40;11.40;;;;;23.23;34.78;100492.44;5137923;27;8848;-78
2022/10/27 13:32:39;;;;;;;;;16.80;15.00;;;;;23.28;35.18;100491.34;5105112;28;8876;-76
2022/10/27 13:35:39;;;;;;;;;15.20;14.20;;;;;23.29;34.99;100484.22;5086499;28;8843;-77
2022/10/27 13:38:25;;;;;;;;;13.80;11.40;;;;;23.23;34.73;100489.78;5105184;28;8847;-75
2022/10/27 13:40:56;;;;;;;;;9.00;9.00;;;;;22.92;34.45;100486.44;5105325;28;8871;-79